Time;durP1;ratioP1;P1;durP2;ratioP2;P2;SDS_P1;SDS_P2;PMS_P1;PMS_P2;Temp;Humidity;BMP_temperature;BMP_pressure;BME280_temperature;BME280_humidity;BME280_pressure;Samples;Min_cycle;Max_cycle;Signal;HPM_P1;HPM_P2
2021/06/19 00:02:00;;;;;;;9.70;7.57;;;;;;;21.68;96.13;97247.75;5033557;28;20639;-63
2021/06/19 00:04:30;;;;;;;11.13;7.77;;;;;;;21.73;96.04;97253.88;5036189;28;20202;-61
2021/06/19 00:06:57;;;;;;;8.77;7.80;;;;;;;21.78;95.80;97266.78;5036518;28;20232;-59
2021/06/19 00:09:24;;;;;;;9.13;7.73;;;;;;;21.77;96.05;97261.66;5039383;28;20263;-61
2021/06/19 00:11:51;;;;;;;9.13;7.67;;;;;;;21.77;96.08;97266.75;5038534;28;20610;-62
2021/06/19 00:14:18;;;;;;;13.63;7.77;;;;;;;21.76;96.04;97259.91;5035270;28;20659;-61
2021/06/19 00:16:45;;;;;;;9.73;7.43;;;;;;;21.76;95.87;97262.47;5035921;28;20725;-62
2021/06/19 00:19:11;;;;;;;8.57;7.40;;;;;;;21.75;95.77;97261.59;5037374;28;20225;-61
2021/06/19 00:21:41;;;;;;;9.30;7.67;;;;;;;21.74;96.02;97272.69;5028849;28;20293;-62
2021/06/19 00:24:12;;;;;;;9.60;7.93;;;;;;;21.75;96.06;97274.41;5038126;28;20240;-62
2021/06/19 00:26:38;;;;;;;8.67;7.67;;;;;;;21.75;96.12;97271.84;5036086;28;20335;-63
2021/06/19 00:29:05;;;;;;;9.80;7.70;;;;;;;21.75;95.97;97276.94;5035998;28;20248;-63
2021/06/19 00:31:31;;;;;;;9.20;7.53;;;;;;;21.76;96.25;97270.16;5034625;28;20247;-62
2021/06/19 00:33:58;;;;;;;9.30;7.20;;;;;;;21.76;96.08;97283.78;5035630;28;20240;-61
2021/06/19 00:36:25;;;;;;;10.20;7.03;;;;;;;21.68;96.45;97264.81;5037386;28;20518;-63
2021/06/19 00:38:51;;;;;;;7.80;7.00;;;;;;;21.76;96.03;97276.13;5039378;28;20939;-62
2021/06/19 00:41:18;;;;;;;9.10;7.03;;;;;;;21.77;96.04;97280.41;5032133;28;20614;-61
2021/06/19 00:43:44;;;;;;;7.80;7.00;;;;;;;21.77;95.80;97279.53;5040139;28;20629;-62
2021/06/19 00:46:11;;;;;;;8.90;6.63;;;;;;;21.77;96.05;97287.22;5027068;28;20309;-61
2021/06/19 00:48:38;;;;;;;7.97;6.87;;;;;;;21.77;96.21;97294.91;5028045;28;20602;-62
2021/06/19 00:51:04;;;;;;;8.70;7.30;;;;;;;21.75;96.17;97291.44;5030520;28;20229;-59
2021/06/19 00:53:32;;;;;;;9.17;7.33;;;;;;;21.76;95.94;97295.72;5031874;28;20284;-62
2021/06/19 00:56:05;;;;;;;7.83;7.03;;;;;;;21.77;96.01;97302.56;5036594;28;20237;-63
2021/06/19 00:58:32;;;;;;;7.83;7.00;;;;;;;21.53;95.94;97270.41;5020344;28;20212;-60
2021/06/19 01:00:58;;;;;;;7.43;6.60;;;;;;;21.73;96.12;97305.84;5025186;28;20242;-63
2021/06/19 01:03:25;;;;;;;10.17;6.83;;;;;;;21.65;96.21;97295.44;5019255;28;20202;-63
2021/06/19 01:05:51;;;;;;;7.67;6.53;;;;;;;21.76;96.47;97311.09;5032699;28;20770;-62
2021/06/19 01:08:18;;;;;;;9.13;6.90;;;;;;;21.72;95.96;97307.53;5026491;28;20731;-61
2021/06/19 01:10:45;;;;;;;8.10;7.30;;;;;;;21.05;96.04;97194.19;5037436;28;20263;-61
2021/06/19 01:13:11;;;;;;;8.63;6.77;;;;;;;21.76;96.44;97327.28;5028782;28;20284;-63
2021/06/19 01:15:38;;;;;;;7.93;6.60;;;;;;;21.77;96.03;97328.16;5028357;28;20289;-63
2021/06/19 01:18:05;;;;;;;9.57;7.50;;;;;;;21.76;96.00;97316.19;5032224;28;20202;-62
2021/06/19 01:20:35;;;;;;;7.43;6.60;;;;;;;21.77;96.19;97317.91;5031274;28;20302;-63
2021/06/19 01:23:01;;;;;;;9.27;7.10;;;;;;;21.65;96.12;97298.84;5034821;28;20207;-61
2021/06/19 01:25:32;;;;;;;8.00;6.20;;;;;;;21.65;95.95;97295.44;5039137;28;20311;-62
2021/06/19 01:27:59;;;;;;;7.53;6.30;;;;;;;21.77;96.11;97310.25;5032213;28;20263;-63
2021/06/19 01:30:27;;;;;;;7.27;6.23;;;;;;;21.77;95.90;97313.69;5032763;28;20646;-61
2021/06/19 01:32:53;;;;;;;9.00;6.83;;;;;;;21.77;96.02;97307.69;5031842;28;20233;-62
2021/06/19 01:35:20;;;;;;;7.57;6.77;;;;;;;21.68;95.97;97293.78;5033995;28;20205;-63
2021/06/19 01:37:48;;;;;;;7.47;6.30;;;;;;;21.78;95.98;97307.72;5031214;28;20240;-61
2021/06/19 01:40:17;;;;;;;7.37;6.43;;;;;;;21.77;95.79;97306.00;5033843;28;20221;-61
2021/06/19 01:42:46;;;;;;;8.43;6.90;;;;;;;21.77;95.68;97307.69;5036539;28;20201;-62
2021/06/19 01:45:13;;;;;;;6.83;6.03;;;;;;;21.78;95.98;97309.41;5039750;28;20300;-62
2021/06/19 01:47:40;;;;;;;7.60;6.33;;;;;;;21.61;95.79;97281.69;5037549;28;20233;-62
2021/06/19 01:50:12;;;;;;;6.60;6.00;;;;;;;21.77;95.88;97303.44;5032023;28;20267;-62
2021/06/19 01:52:39;;;;;;;6.90;6.20;;;;;;;21.77;96.07;97308.56;5033390;28;20278;-62
2021/06/19 01:55:06;;;;;;;7.40;6.20;;;;;;;21.76;95.94;97308.53;5035777;28;20259;-62
2021/06/19 01:57:33;;;;;;;8.80;6.30;;;;;;;21.76;96.20;97305.97;5036351;28;20705;-62
2021/06/19 02:00:08;;;;;;;8.97;6.37;;;;;;;21.77;96.03;97305.13;5036950;28;20849;-62
2021/06/19 02:02:35;;;;;;;6.10;5.50;;;;;;;21.65;96.10;97288.59;5038735;28;20234;-62
2021/06/19 02:05:02;;;;;;;8.00;6.10;;;;;;;21.77;96.00;97307.69;5018777;28;20200;-62
2021/06/19 02:07:28;;;;;;;6.70;5.90;;;;;;;21.76;95.94;97311.94;5034929;28;20221;-62
2021/06/19 02:09:55;;;;;;;6.93;6.23;;;;;;;21.76;95.85;97344.34;5031604;28;20311;-62
2021/06/19 02:12:22;;;;;;;6.50;5.90;;;;;;;21.61;96.35;97304.72;5034570;28;20240;-62
2021/06/19 02:14:48;;;;;;;7.40;6.23;;;;;;;21.77;95.98;97359.72;5036248;28;20664;-62
2021/06/19 02:17:15;;;;;;;6.70;5.90;;;;;;;21.75;96.30;97343.47;5032601;28;20201;-61
2021/06/19 02:19:41;;;;;;;7.40;6.17;;;;;;;21.78;96.10;97363.13;5036613;28;20600;-61
2021/06/19 02:22:08;;;;;;;6.93;6.23;;;;;;;21.77;96.05;97349.50;5038010;28;20233;-59
2021/06/19 02:24:35;;;;;;;6.40;5.70;;;;;;;21.77;95.76;97362.28;5036065;28;20293;-61
2021/06/19 02:27:11;;;;;;;6.43;5.33;;;;;;;21.77;95.75;97352.03;5038723;28;20312;-63
2021/06/19 02:29:38;;;;;;;6.43;5.77;;;;;;;21.78;95.97;97345.22;5028714;28;20334;-62
2021/06/19 02:32:06;;;;;;;7.90;5.60;;;;;;;21.57;95.77;97310.59;5031411;28;20287;-62
2021/06/19 02:34:33;;;;;;;6.70;5.80;;;;;;;21.71;95.74;97327.13;5031956;28;20200;-62
2021/06/19 02:37:00;;;;;;;6.40;5.80;;;;;;;21.77;95.65;97335.81;5035178;28;20242;-62
2021/06/19 02:39:26;;;;;;;7.37;5.80;;;;;;;21.76;95.86;97329.00;5035903;28;20312;-62
2021/06/19 02:41:53;;;;;;;7.03;5.83;;;;;;;21.74;95.91;97336.63;5017944;28;20674;-62
2021/06/19 02:44:20;;;;;;;6.97;5.60;;;;;;;20.96;95.80;97205.00;5041141;28;20211;-62
2021/06/19 02:46:46;;;;;;;7.57;5.77;;;;;;;21.76;95.92;97347.72;5036067;28;20327;-62
2021/06/19 02:49:13;;;;;;;6.27;5.27;;;;;;;21.69;95.86;97333.91;5034321;28;20228;-61
2021/06/19 02:51:40;;;;;;;5.47;4.80;;;;;;;21.76;96.28;97340.06;5034843;28;20302;-62
2021/06/19 02:54:06;;;;;;;6.23;5.57;;;;;;;21.77;96.09;97346.06;5034431;28;20297;-62
2021/06/19 02:56:33;;;;;;;6.00;5.40;;;;;;;21.77;96.00;97333.25;5036927;28;20237;-61
2021/06/19 02:58:59;;;;;;;6.93;5.60;;;;;;;21.77;95.92;97341.81;5034305;28;20261;-62
2021/06/19 03:01:26;;;;;;;6.17;5.33;;;;;;;21.77;95.79;97340.94;5037024;28;20205;-62
2021/06/19 03:03:57;;;;;;;6.80;5.63;;;;;;;21.77;95.74;97352.03;5030290;28;20216;-62
2021/06/19 03:06:23;;;;;;;6.87;5.27;;;;;;;21.77;96.05;97366.53;5036813;28;20260;-62
2021/06/19 03:08:50;;;;;;;7.10;5.53;;;;;;;21.78;96.15;97370.78;5033369;28;20256;-63
2021/06/19 03:11:16;;;;;;;6.20;5.53;;;;;;;21.61;95.66;97339.63;5026884;28;20647;-61
2021/06/19 03:13:43;;;;;;;7.03;5.37;;;;;;;21.77;95.84;97358.84;5036782;28;20244;-63
2021/06/19 03:16:09;;;;;;;5.67;5.10;;;;;;;21.70;95.87;97334.75;5022135;28;20241;-60
2021/06/19 03:18:36;;;;;;;5.47;5.00;;;;;;;21.42;95.77;97283.75;5032598;28;20315;-63
2021/06/19 03:21:03;;;;;;;6.57;5.40;;;;;;;21.60;95.75;97317.47;5035885;28;20240;-63
2021/06/19 03:23:29;;;;;;;6.50;5.17;;;;;;;21.76;96.00;97355.41;5023661;28;20617;-62
2021/06/19 03:25:56;;;;;;;5.93;5.33;;;;;;;21.71;96.02;97357.81;5033346;28;20238;-59
2021/06/19 03:28:24;;;;;;;6.07;5.47;;;;;;;21.68;95.88;97349.22;5036212;28;20288;-62
2021/06/19 03:30:50;;;;;;;6.03;5.40;;;;;;;21.75;96.04;97361.38;5030837;28;20244;-62
2021/06/19 03:33:17;;;;;;;5.87;5.23;;;;;;;21.71;95.74;97349.28;5038224;28;20267;-61
2021/06/19 03:35:44;;;;;;;6.73;5.60;;;;;;;21.59;95.88;97337.03;5020855;28;20219;-60
2021/06/19 03:38:10;;;;;;;5.33;4.83;;;;;;;21.75;96.03;97353.69;5034292;28;20288;-63
2021/06/19 03:40:37;;;;;;;5.70;5.07;;;;;;;21.69;96.22;97351.81;5037720;28;20324;-61
2021/06/19 03:43:04;;;;;;;5.73;5.10;;;;;;;21.75;96.28;97361.38;5041607;28;20287;-63
2021/06/19 03:45:34;;;;;;;6.17;5.50;;;;;;;21.70;96.16;97348.41;5040650;28;20742;-62
2021/06/19 03:48:01;;;;;;;5.90;5.23;;;;;;;21.77;96.43;97369.94;5037145;28;20232;-62
2021/06/19 03:50:28;;;;;;;6.43;5.30;;;;;;;21.74;96.35;97359.63;5021916;28;20723;-62
2021/06/19 03:52:56;;;;;;;6.57;5.90;;;;;;;21.75;96.47;97368.16;5039175;28;20209;-62
2021/06/19 03:55:23;;;;;;;6.87;5.23;;;;;;;21.63;96.31;97354.22;5038306;28;20258;-62
2021/06/19 03:57:50;;;;;;;6.47;5.60;;;;;;;21.78;96.27;97384.47;5034884;28;20253;-62
2021/06/19 04:00:17;;;;;;;5.60;5.10;;;;;;;21.74;96.43;97390.34;5031571;28;20283;-61
2021/06/19 04:02:45;;;;;;;6.07;5.37;;;;;;;21.78;96.20;97398.94;5036010;28;20737;-60
2021/06/19 04:05:12;;;;;;;5.87;5.27;;;;;;;21.77;96.40;97395.53;5035591;28;20280;-62
2021/06/19 04:07:39;;;;;;;6.30;5.70;;;;;;;21.71;96.14;97385.94;5032522;28;20253;-62
2021/06/19 04:10:07;;;;;;;6.17;5.57;;;;;;;21.78;96.32;97398.94;5029628;28;20256;-62
2021/06/19 04:12:33;;;;;;;6.10;5.50;;;;;;;21.69;96.28;97386.75;5036860;28;20204;-62
2021/06/19 04:15:00;;;;;;;5.17;4.63;;;;;;;21.78;96.29;97406.59;5036490;28;20212;-62
2021/06/19 04:17:28;;;;;;;9.97;5.83;;;;;;;21.77;96.45;97408.31;5037524;28;20198;-61
2021/06/19 04:19:54;;;;;;;6.63;5.90;;;;;;;21.78;96.29;97419.41;5039774;28;20674;-62
2021/06/19 04:22:21;;;;;;;6.27;5.67;;;;;;;21.78;96.30;97414.28;5032120;28;20681;-62
2021/06/19 04:24:48;;;;;;;5.97;5.30;;;;;;;21.78;96.78;97417.72;5020680;28;20260;-61
2021/06/19 04:27:17;;;;;;;6.60;6.00;;;;;;;21.79;96.80;97421.16;5038584;28;20271;-62
2021/06/19 04:29:44;;;;;;;6.37;4.77;;;;;;;21.78;96.61;97422.84;5036320;28;20244;-62
2021/06/19 04:32:10;;;;;;;5.97;5.33;;;;;;;21.71;96.69;97414.09;5032023;28;20208;-62
2021/06/19 04:34:38;;;;;;;6.73;5.07;;;;;;;21.69;96.64;97413.19;5039337;28;20300;-63
2021/06/19 04:37:12;;;;;;;5.77;5.10;;;;;;;21.79;96.70;97424.56;5032250;28;20345;-62
2021/06/19 04:39:47;;;;;;;6.30;4.50;;;;;;;21.73;96.72;97418.41;5031618;28;20353;-61
2021/06/19 04:42:17;;;;;;;5.90;5.27;;;;;;;21.79;96.83;97429.69;5036033;28;20220;-61
2021/06/19 04:47:20;;;;;;;6.03;5.40;;;;;;;21.79;96.57;97429.69;5038992;28;20311;-59
2021/06/19 04:49:46;;;;;;;7.77;5.23;;;;;;;21.74;96.53;97428.72;5035885;28;20908;-62
2021/06/19 04:52:13;;;;;;;5.63;4.90;;;;;;;21.65;96.40;97423.31;5040029;28;20251;-63
2021/06/19 04:54:39;;;;;;;5.70;5.10;;;;;;;21.78;96.93;97447.53;5031375;28;20237;-62
2021/06/19 04:57:06;;;;;;;5.87;5.20;;;;;;;21.65;96.88;97442.06;5010502;28;20234;-62
2021/06/19 04:59:33;;;;;;;5.27;4.80;;;;;;;21.78;96.66;97471.44;5034462;28;20247;-61
2021/06/19 05:02:00;;;;;;;5.67;5.17;;;;;;;21.77;96.74;97471.41;5034643;28;20237;-63
2021/06/19 05:04:27;;;;;;;6.97;5.30;;;;;;;21.77;97.22;97472.28;5032342;28;20662;-62
2021/06/19 05:06:54;;;;;;;5.17;4.67;;;;;;;21.78;98.58;97466.31;5031809;28;20345;-60
2021/06/19 05:09:20;;;;;;;17.17;5.83;;;;;;;21.79;99.34;97470.59;5038247;28;20221;-62
2021/06/19 05:11:47;;;;;;;13.13;5.40;;;;;;;21.78;99.52;97468.88;5034980;28;20292;-61
2021/06/19 05:14:13;;;;;;;10.40;5.83;;;;;;;21.80;99.68;97468.91;5037923;28;20232;-62
2021/06/19 05:16:40;;;;;;;9.27;5.33;;;;;;;21.81;99.62;97470.66;5038681;28;20228;-60
2021/06/19 05:19:06;;;;;;;14.80;5.63;;;;;;;21.80;99.47;97464.69;5037114;28;20632;-60
2021/06/19 05:21:33;;;;;;;9.33;4.80;;;;;;;21.76;99.12;97451.78;5038572;28;20232;-62
2021/06/19 05:23:59;;;;;;;8.90;5.90;;;;;;;21.82;98.75;97468.16;5023478;28;20315;-62
2021/06/19 05:26:26;;;;;;;7.97;5.50;;;;;;;21.82;98.27;97465.59;5031780;28;20498;-62
2021/06/19 05:28:53;;;;;;;10.93;5.60;;;;;;;21.82;98.27;97467.28;5033303;28;20288;-64
2021/06/19 05:31:19;;;;;;;8.13;5.57;;;;;;;21.80;98.05;97464.69;5037094;28;20232;-61
2021/06/19 05:33:46;;;;;;;23.10;5.50;;;;;;;21.79;97.85;97451.84;5032976;28;20209;-63
2021/06/19 05:36:13;;;;;;;5.90;5.30;;;;;;;21.82;97.70;97468.16;5029705;28;20302;-61
2021/06/19 05:38:39;;;;;;;6.47;5.23;;;;;;;21.75;98.08;97461.13;5029109;28;20201;-61
2021/06/19 05:41:06;;;;;;;12.00;5.43;;;;;;;21.17;97.91;97369.13;5035081;28;20682;-62
2021/06/19 05:43:32;;;;;;;7.23;5.10;;;;;;;21.73;97.84;97467.00;5039951;28;20730;-62
2021/06/19 05:45:59;;;;;;;6.70;5.20;;;;;;;21.82;98.11;97488.63;5038248;28;20645;-68
2021/06/19 05:48:26;;;;;;;8.93;5.20;;;;;;;21.83;97.91;97490.34;5036796;28;20239;-61
2021/06/19 05:50:53;;;;;;;10.10;5.30;;;;;;;21.12;97.65;97365.59;5068156;22;20316;-67
2021/06/19 05:53:19;;;;;;;7.27;4.97;;;;;;;21.79;97.40;97472.31;5019201;28;20233;-71
2021/06/19 05:55:46;;;;;;;5.73;5.13;;;;;;;20.20;97.59;97218.09;5041799;28;20204;-72
2021/06/19 05:58:13;;;;;;;8.53;5.43;;;;;;;21.78;97.15;97468.88;5042692;28;20304;-68
2021/06/19 06:00:39;;;;;;;6.93;5.03;;;;;;;21.49;97.27;97416.03;5039451;28;20319;-68
2021/06/19 06:03:06;;;;;;;5.67;4.63;;;;;;;20.99;97.07;97322.59;5009025;28;20201;-68
2021/06/19 06:05:32;;;;;;;6.53;4.80;;;;;;;21.87;96.92;97478.53;5042747;28;20299;-68
2021/06/19 06:08:00;;;;;;;6.00;5.40;;;;;;;20.82;96.67;97297.38;5043986;28;20311;-68
2021/06/19 06:10:28;;;;;;;7.17;4.83;;;;;;;21.68;96.82;97452.38;5032734;28;20253;-69
2021/06/19 06:12:56;;;;;;;6.87;4.80;;;;;;;21.57;96.73;97428.22;5042870;28;20255;-66
2021/06/19 06:15:24;;;;;;;8.50;5.37;;;;;;;21.61;96.81;97441.94;5041505;28;20223;-71
2021/06/19 06:17:51;;;;;;;6.83;5.40;;;;;;;21.79;96.52;97478.28;5041150;28;20658;-71
2021/06/19 06:20:17;;;;;;;9.63;5.63;;;;;;;21.75;96.39;97478.16;5045776;28;20229;-68
2021/06/19 06:22:44;;;;;;;11.73;6.90;;;;;;;21.85;97.14;97493.81;5041811;28;20836;-65
2021/06/19 06:25:11;;;;;;;21.97;9.97;;;;;;;21.15;97.24;97377.56;5041597;28;20235;-67
2021/06/19 06:27:39;;;;;;;33.40;12.80;;;;;;;21.86;97.61;97492.13;5021115;28;20218;-69
2021/06/19 06:30:06;;;;;;;35.80;15.27;;;;;;;21.86;97.52;97492.13;5041883;28;20275;-69
2021/06/19 06:32:34;;;;;;;38.63;18.27;;;;;;;21.68;97.71;97465.16;5044220;28;20327;-67
2021/06/19 06:35:01;;;;;;;31.50;16.60;;;;;;;21.54;97.54;97435.81;5044350;28;20266;-68
2021/06/19 06:37:27;;;;;;;40.40;18.77;;;;;;;21.87;97.37;97496.44;5039217;28;20781;-69
2021/06/19 06:39:54;;;;;;;41.97;18.97;;;;;;;21.88;97.49;97487.91;5042955;28;20228;-71
2021/06/19 06:42:20;;;;;;;49.07;19.30;;;;;;;21.88;97.49;97493.91;5040078;28;20236;-66
2021/06/19 06:44:47;;;;;;;46.73;22.23;;;;;;;21.84;97.36;97486.13;5043067;28;20205;-68
2021/06/19 06:47:14;;;;;;;54.03;23.33;;;;;;;21.27;97.48;97389.00;5044790;28;20331;-67
2021/06/19 06:49:41;;;;;;;53.97;25.43;;;;;;;21.69;97.77;97466.91;5043962;28;20240;-68
2021/06/19 06:52:07;;;;;;;74.33;29.00;;;;;;;21.80;98.08;97480.03;5023999;28;20205;-66
2021/06/19 06:54:38;;;;;;;62.07;29.90;;;;;;;21.68;97.73;97472.84;5033354;28;20237;-67
2021/06/19 06:57:08;;;;;;;73.57;33.33;;;;;;;21.68;97.92;97472.84;5041203;28;20233;-68
2021/06/19 06:59:35;;;;;;;75.10;33.97;;;;;;;21.16;97.82;97384.41;5017018;28;20299;-72
2021/06/19 07:02:05;;;;;;;78.43;36.10;;;;;;;21.67;98.27;97483.91;5041297;28;20726;-70
2021/06/19 07:04:32;;;;;;;83.77;36.70;;;;;;;21.17;97.90;97386.16;5010571;28;20631;-69
2021/06/19 07:06:59;;;;;;;81.87;37.00;;;;;;;21.50;97.81;97443.34;5041955;28;20725;-68
2021/06/19 07:09:25;;;;;;;86.27;38.53;;;;;;;21.70;98.19;97473.75;5029520;28;20316;-68
2021/06/19 07:11:52;;;;;;;73.20;35.60;;;;;;;21.38;98.11;97413.16;5043908;28;20271;-69
2021/06/19 07:14:19;;;;;;;79.27;36.93;;;;;;;21.68;97.87;97466.88;5047658;28;20236;-69
2021/06/19 07:16:46;;;;;;;84.67;37.20;;;;;;;21.53;97.88;97443.44;5028787;28;20236;-70
2021/06/19 07:19:12;;;;;;;88.03;37.97;;;;;;;20.95;97.53;97337.81;5042249;28;20255;-71
2021/06/19 07:21:39;;;;;;;83.57;37.37;;;;;;;21.86;97.76;97500.66;5049559;28;20266;-69
2021/06/19 07:24:09;;;;;;;81.97;36.40;;;;;;;21.66;97.43;97458.28;5044228;28;20581;-67
2021/06/19 07:26:36;;;;;;;75.73;36.27;;;;;;;21.54;97.89;97440.91;5045716;28;20213;-68
2021/06/19 07:29:02;;;;;;;81.73;36.50;;;;;;;21.16;97.73;97369.06;5047384;28;20299;-69
2021/06/19 07:31:29;;;;;;;72.17;34.23;;;;;;;20.58;97.54;97279.69;5047649;28;20205;-65
2021/06/19 07:33:56;;;;;;;70.80;34.53;;;;;;;21.77;97.71;97484.19;5045477;28;20267;-68
2021/06/19 07:36:22;;;;;;;76.77;36.47;;;;;;;21.32;97.82;97407.88;5047066;28;20233;-67
2021/06/19 07:38:49;;;;;;;72.83;33.50;;;;;;;21.86;97.94;97503.22;5043591;28;20639;-68
2021/06/19 07:41:15;;;;;;;70.57;33.07;;;;;;;21.44;97.71;97435.50;5047946;28;20308;-67
2021/06/19 07:43:43;;;;;;;64.23;31.40;;;;;;;21.85;97.82;97510.88;5034693;28;20292;-69
2021/06/19 07:46:10;;;;;;;70.90;32.93;;;;;;;21.04;97.71;97363.63;5048077;28;20201;-68
2021/06/19 07:48:37;;;;;;;69.13;32.67;;;;;;;21.85;97.89;97501.50;5047002;28;20278;-68
2021/06/19 07:51:04;;;;;;;57.40;30.67;;;;;;;21.53;97.81;97451.09;5044391;28;20243;-72
2021/06/19 07:53:30;;;;;;;61.43;30.77;;;;;;;21.27;97.41;97403.47;5048219;28;20696;-66
2021/06/19 07:55:57;;;;;;;64.60;30.33;;;;;;;21.18;97.46;97388.75;5034932;28;20296;-70
2021/06/19 07:58:23;;;;;;;58.70;29.17;;;;;;;21.85;97.53;97508.31;5043087;28;20231;-67
2021/06/19 08:00:50;;;;;;;57.20;28.30;;;;;;;21.86;97.44;97507.47;5044749;28;20263;-74
2021/06/19 08:03:17;;;;;;;53.20;27.83;;;;;;;21.86;97.61;97502.34;5017641;28;20281;-71
2021/06/19 08:05:43;;;;;;;59.80;28.83;;;;;;;21.86;97.72;97499.78;5040257;28;20287;-67
2021/06/19 08:08:10;;;;;;;56.93;28.13;;;;;;;21.84;97.83;97494.63;5034888;28;21018;-66
2021/06/19 08:10:36;;;;;;;49.90;27.70;;;;;;;21.68;97.66;97474.53;5034529;28;20726;-71
2021/06/19 08:13:03;;;;;;;51.33;26.00;;;;;;;21.56;97.91;97459.72;5043305;28;20284;-67
2021/06/19 08:15:30;;;;;;;49.30;26.20;;;;;;;21.45;98.10;97453.44;5047467;28;20736;-69
2021/06/19 08:17:57;;;;;;;49.40;24.97;;;;;;;21.86;98.03;97515.16;5034936;28;20308;-67
2021/06/19 08:20:23;;;;;;;53.13;26.47;;;;;;;21.58;98.09;97455.50;5045751;28;20229;-69
2021/06/19 08:22:50;;;;;;;50.07;26.40;;;;;;;21.68;97.59;97469.44;5047648;28;20316;-67
2021/06/19 08:25:17;;;;;;;48.73;24.60;;;;;;;21.87;98.20;97499.84;5032431;28;20351;-69
2021/06/19 08:27:43;;;;;;;50.13;25.23;;;;;;;21.89;98.31;97492.19;5023395;28;20335;-66
2021/06/19 08:30:10;;;;;;;46.27;23.50;;;;;;;21.55;97.87;97427.28;5042332;28;20718;-70
2021/06/19 08:32:37;;;;;;;43.07;23.23;;;;;;;21.86;97.94;97481.88;5028161;28;20289;-70
2021/06/19 08:35:05;;;;;;;44.80;23.97;;;;;;;21.40;97.69;97398.75;5037811;28;20248;-68
2021/06/19 08:37:32;;;;;;;40.93;22.87;;;;;;;21.88;97.38;97477.69;5038326;28;20240;-69
2021/06/19 08:39:58;;;;;;;47.07;22.60;;;;;;;21.62;97.70;97436.00;5037739;28;20311;-69
2021/06/19 08:42:25;;;;;;;44.07;24.17;;;;;;;21.02;97.35;97327.78;5042828;28;20233;-70
2021/06/19 08:44:52;;;;;;;44.53;23.97;;;;;;;21.50;97.68;97410.09;5028899;28;20289;-67
2021/06/19 08:47:19;;;;;;;41.40;22.10;;;;;;;21.71;98.35;97472.06;5025696;28;20987;-68
2021/06/19 08:49:45;;;;;;;39.13;22.53;;;;;;;21.17;98.55;97346.13;5026853;28;20233;-68
2021/06/19 08:52:12;;;;;;;38.70;21.30;;;;;;;21.69;98.97;97433.66;5024308;28;20202;-74
2021/06/19 08:54:39;;;;;;;39.77;20.97;;;;;;;21.66;98.79;97419.91;5027136;28;20229;-69
2021/06/19 08:57:09;;;;;;;38.10;20.80;;;;;;;21.31;98.97;97355.03;5045691;28;20236;-66
2021/06/19 08:59:37;;;;;;;35.90;20.40;;;;;;;21.88;98.85;97450.41;5046220;28;20308;-68
2021/06/19 09:02:06;;;;;;;36.47;20.53;;;;;;;21.32;98.57;97364.44;5046153;28;20232;-68
2021/06/19 09:04:51;;;;;;;36.27;19.93;;;;;;;21.90;98.58;97453.84;5028593;28;20295;-69
2021/06/19 09:07:51;;;;;;;40.57;21.10;;;;;;;21.90;98.62;97450.47;5042605;28;20276;-67
2021/06/19 09:10:23;;;;;;;39.20;19.50;;;;;;;21.91;98.50;97457.28;5039641;28;20225;-68
2021/06/19 09:12:56;;;;;;;36.37;18.93;;;;;;;21.17;98.05;97328.22;5046777;28;20887;-65
2021/06/19 09:15:23;;;;;;;34.03;18.83;;;;;;;21.69;98.01;97412.31;5035560;28;20228;-69
2021/06/19 09:18:10;;;;;;;32.40;18.57;;;;;;;21.51;98.18;97378.59;5039416;28;20198;-66
2021/06/19 09:20:55;;;;;;;33.57;18.47;;;;;;;21.90;98.11;97440.22;5026654;28;20250;-71
2021/06/19 09:23:42;;;;;;;35.30;20.00;;;;;;;21.90;98.08;97445.34;5045306;28;20697;-67
2021/06/19 09:26:16;;;;;;;35.87;18.57;;;;;;;21.90;98.42;97442.78;5045951;28;20241;-66
2021/06/19 09:29:03;;;;;;;42.73;18.73;;;;;;;21.90;99.18;97438.50;5037893;28;20228;-65
2021/06/19 09:31:29;;;;;;;36.27;18.57;;;;;;;21.90;99.48;97438.50;5031581;28;20744;-70
2021/06/19 09:34:20;;;;;;;30.60;18.20;;;;;;;21.74;98.95;97413.34;5041830;28;20291;-73
2021/06/19 09:36:54;;;;;;;34.23;20.17;;;;;;;21.89;98.86;97434.22;5033397;28;20243;-70
2021/06/19 09:39:22;;;;;;;28.67;17.43;;;;;;;21.71;98.79;97397.91;5043487;28;20748;-69
2021/06/19 09:41:53;;;;;;;39.03;20.17;;;;;;;21.83;98.50;97415.28;5025771;28;20197;-68
2021/06/19 09:44:41;;;;;;;36.90;18.97;;;;;;;21.90;98.56;97419.75;5042815;28;20214;-67
2021/06/19 09:47:16;;;;;;;34.77;19.43;;;;;;;21.90;98.25;97424.88;5045966;28;20231;-68
2021/06/19 09:49:47;;;;;;;31.80;18.53;;;;;;;21.38;98.28;97333.91;5042336;28;20266;-70
2021/06/19 09:52:14;;;;;;;35.83;18.43;;;;;;;21.71;98.18;97390.22;5037545;28;20757;-68
2021/06/19 09:54:42;;;;;;;33.27;18.20;;;;;;;21.76;98.26;97395.50;5029074;28;20300;-72
2021/06/19 09:57:12;;;;;;;32.47;18.30;;;;;;;21.91;98.32;97413.81;5036635;28;20212;-70
2021/06/19 09:59:39;;;;;;;30.57;17.37;;;;;;;21.91;98.14;97413.81;5042210;28;20249;-72
2021/06/19 10:02:28;;;;;;;31.67;17.37;;;;;;;21.73;98.24;97374.91;5042413;28;20738;-68
2021/06/19 10:04:58;;;;;;;33.60;17.90;;;;;;;21.91;98.35;97407.00;5044260;28;20682;-68
2021/06/19 10:07:25;;;;;;;35.37;18.93;;;;;;;21.20;98.13;97281.47;5044993;28;20232;-72
2021/06/19 10:09:53;;;;;;;28.90;16.93;;;;;;;21.75;98.09;97376.72;5018091;28;20259;-70
2021/06/19 10:12:21;;;;;;;31.53;17.37;;;;;;;21.63;97.92;97356.78;5036275;28;20740;-68
2021/06/19 10:14:53;;;;;;;28.30;17.70;;;;;;;21.90;98.15;97400.13;5021300;28;20213;-69
2021/06/19 10:17:22;;;;;;;28.83;17.07;;;;;;;21.60;97.94;97350.69;5028024;28;20232;-69
2021/06/19 10:19:50;;;;;;;29.33;18.07;;;;;;;21.80;98.26;97381.94;5025098;28;20281;-70
2021/06/19 10:22:17;;;;;;;33.80;16.53;;;;;;;21.70;99.03;97362.88;5042933;28;20286;-66
2021/06/19 10:24:44;;;;;;;30.53;17.07;;;;;;;21.90;98.63;97397.56;5025247;28;20279;-70
2021/06/19 10:27:16;;;;;;;27.80;16.53;;;;;;;21.14;98.96;97263.41;5043225;28;20203;-68
2021/06/19 10:29:44;;;;;;;28.10;16.20;;;;;;;21.90;99.25;97389.91;5045196;28;20827;-67
2021/06/19 10:32:10;;;;;;;30.10;15.50;;;;;;;21.62;99.46;97343.94;5011612;28;20237;-68
2021/06/19 10:34:38;;;;;;;28.70;15.30;;;;;;;21.81;99.54;97373.44;5043091;28;20228;-73
2021/06/19 10:37:08;;;;;;;26.50;16.40;;;;;;;21.27;99.56;97279.09;5044657;28;20240;-68
2021/06/19 10:39:40;;;;;;;24.03;14.47;;;;;;;21.91;99.55;97388.22;5028120;28;20299;-72
2021/06/19 10:42:28;;;;;;;28.73;15.00;;;;;;;21.93;99.62;97394.25;5045602;28;20251;-68
2021/06/19 10:44:58;;;;;;;24.97;14.83;;;;;;;21.93;99.45;97386.56;5038322;28;20379;-70
2021/06/19 10:47:27;;;;;;;32.27;16.03;;;;;;;21.86;99.28;97371.88;5013582;28;20229;-70
2021/06/19 10:49:54;;;;;;;25.17;14.63;;;;;;;21.65;99.17;97332.09;5039948;28;20263;-68
2021/06/19 10:52:38;;;;;;;26.13;14.57;;;;;;;21.92;99.13;97378.03;5020575;28;20563;-67
2021/06/19 10:55:10;;;;;;;25.37;14.70;;;;;;;21.94;99.24;97375.50;5045653;28;20240;-68
2021/06/19 10:57:50;;;;;;;22.03;14.30;;;;;;;21.94;98.88;97376.38;5045124;28;20239;-72
2021/06/19 11:00:42;;;;;;;24.63;14.43;;;;;;;21.77;98.55;97330.72;5045209;28;20304;-70
2021/06/19 11:03:09;;;;;;;28.77;13.67;;;;;;;21.85;98.11;97348.00;5038422;28;20254;-70
2021/06/19 11:05:44;;;;;;;24.60;13.47;;;;;;;21.94;98.45;97360.16;5048471;28;20604;-69
2021/06/19 11:08:15;;;;;;;22.33;14.03;;;;;;;21.30;98.63;97252.75;5046318;28;20216;-71
2021/06/19 11:10:44;;;;;;;22.60;13.80;;;;;;;21.93;99.21;97361.81;5031243;28;20307;-68
2021/06/19 11:13:33;;;;;;;21.40;13.63;;;;;;;21.94;99.30;97344.78;5050042;28;20238;-67
2021/06/19 11:16:01;;;;;;;23.80;14.30;;;;;;;21.54;99.84;97277.25;5048553;28;20274;-68
2021/06/19 11:18:47;;;;;;;20.90;13.10;;;;;;;21.93;99.80;97338.81;5048162;28;20287;-70
2021/06/19 11:21:34;;;;;;;25.07;13.87;;;;;;;21.94;99.38;97342.25;5045991;28;20248;-68
2021/06/19 11:24:00;;;;;;;24.73;13.53;;;;;;;21.94;99.51;97339.69;5047753;28;20200;-68
2021/06/19 11:29:37;;;;;;;24.53;14.47;;;;;;;21.94;99.36;97332.88;5031925;28;20260;-67
2021/06/19 11:32:27;;;;;;;24.10;13.23;;;;;;;21.94;99.59;97330.31;5049282;28;20623;-68
2021/06/19 11:34:58;;;;;;;18.53;12.90;;;;;;;21.77;99.37;97293.22;5041313;28;20229;-70
2021/06/19 11:37:51;;;;;;;19.70;13.13;;;;;;;21.94;99.51;97317.53;5042408;28;20716;-68
2021/06/19 11:40:29;;;;;;;25.87;13.37;;;;;;;21.91;99.64;97304.66;5044833;28;20249;-72